Time,TemperatureF,DewpointF,PressureIn,WindDirection,WindDirectionDegrees,WindSpeedMPH,WindSpeedGustMPH,Humidity,HourlyPrecipIn,Conditions,Clouds,dailyrainin,SoftwareType,DateUTC
2013-01-23 00:00:00,17.8,8.4,29.56,NE,46,1.0,1.0,66,0.00,,,0.00,Wunderground v.1.15,2013-01-23 09:00:00,
2013-01-23 00:10:00,17.5,8.1,29.56,North,9,4.0,5.0,66,0.00,,,0.00,Wunderground v.1.15,2013-01-23 09:10:00,
2013-01-23 00:15:00,16.9,8.5,29.56,North,1,4.0,5.0,69,0.00,,,0.00,Wunderground v.1.15,2013-01-23 09:15:00,
2013-01-23 00:25:00,16.9,8.5,29.56,ENE,71,3.0,5.0,69,0.00,,,0.00,Wunderground v.1.15,2013-01-23 09:25:00,
2013-01-23 00:35:00,17.2,8.4,29.56,NE,52,3.0,5.0,68,0.00,,,0.00,Wunderground v.1.15,2013-01-23 09:35:00,
2013-01-23 00:45:00,17.3,8.5,29.56,East,100,3.0,4.0,68,0.00,,,0.00,Wunderground v.1.15,2013-01-23 09:45:00,
2013-01-23 00:55:00,16.9,7.8,29.56,ENE,76,4.0,6.0,67,0.00,,,0.00,Wunderground v.1.15,2013-01-23 09:55:00,
2013-01-23 01:00:00,16.5,7.8,29.56,East,91,5.0,7.0,68,0.00,,,0.00,Wunderground v.1.15,2013-01-23 10:00:00,
2013-01-23 01:10:00,16.5,8.1,29.56,ENE,77,4.0,4.0,69,0.00,,,0.00,Wunderground v.1.15,2013-01-23 10:10:00,
2013-01-23 01:15:00,16.5,8.1,29.56,ENE,73,3.0,4.0,69,0.00,,,0.00,Wunderground v.1.15,2013-01-23 10:15:00,
2013-01-23 01:20:00,16.5,8.1,29.56,ENE,71,2.0,2.0,69,0.00,,,0.00,Wunderground v.1.15,2013-01-23 10:20:00,
2013-01-23 01:30:00,15.4,7.4,29.57,ENE,70,1.0,1.0,70,0.00,,,0.00,Wunderground v.1.15,2013-01-23 10:30:00,
2013-01-23 01:40:00,14.6,7.2,29.57,ENE,70,0.0,0.0,72,0.00,,,0.00,Wunderground v.1.15,2013-01-23 10:40:00,
2013-01-23 01:50:00,14.0,6.9,29.57,ENE,70,1.0,2.0,73,0.00,,,0.00,Wunderground v.1.15,2013-01-23 10:50:00,
2013-01-23 02:00:00,14.0,6.9,29.56,ENE,64,1.0,2.0,73,0.00,,,0.00,Wunderground v.1.15,2013-01-23 11:00:00,
2013-01-23 02:10:00,14.3,7.2,29.56,ENE,64,1.0,2.0,73,0.00,,,0.00,Wunderground v.1.15,2013-01-23 11:10:00,
2013-01-23 02:20:00,15.1,7.7,29.56,ENE,64,1.0,1.0,72,0.00,,,0.00,Wunderground v.1.15,2013-01-23 11:20:00,
2013-01-23 02:30:00,15.4,8.0,29.56,ESE,111,1.0,2.0,72,0.00,,,0.00,Wunderground v.1.15,2013-01-23 11:30:00,
2013-01-23 02:35:00,16.2,7.8,29.56,ENE,74,2.0,2.0,69,0.00,,,0.00,Wunderground v.1.15,2013-01-23 11:35:00,
2013-01-23 02:40:00,16.2,7.8,29.56,ENE,74,3.0,3.0,69,0.00,,,0.00,Wunderground v.1.15,2013-01-23 11:40:00,
2013-01-23 02:50:00,15.9,7.8,29.56,ENE,74,1.0,3.0,70,0.00,,,0.00,Wunderground v.1.15,2013-01-23 11:50:00,
2013-01-23 03:00:00,15.4,7.7,29.56,ENE,74,1.0,2.0,71,0.00,,,0.00,Wunderground v.1.15,2013-01-23 12:00:00,
2013-01-23 03:10:00,15.1,7.7,29.56,ENE,73,2.0,2.0,72,0.00,,,0.00,Wunderground v.1.15,2013-01-23 12:10:00,
2013-01-23 03:15:00,14.9,7.5,29.56,NE,39,2.0,3.0,72,0.00,,,0.00,Wunderground v.1.15,2013-01-23 12:15:00,
2013-01-23 03:25:00,14.4,7.3,29.56,North,6,3.0,5.0,73,0.00,,,0.00,Wunderground v.1.15,2013-01-23 12:25:00,
2013-01-23 03:35:00,14.8,7.7,29.56,North,6,0.0,1.0,73,0.00,,,0.00,Wunderground v.1.15,2013-01-23 12:35:00,
2013-01-23 03:40:00,15.4,8.0,29.56,NE,43,1.0,2.0,72,0.00,,,0.00,Wunderground v.1.15,2013-01-23 12:40:00,
2013-01-23 03:45:00,16.2,8.1,29.56,NE,46,3.0,3.0,70,0.00,,,0.00,Wunderground v.1.15,2013-01-23 12:45:00,
2013-01-23 03:55:00,16.9,7.5,29.56,ENE,77,2.0,3.0,66,0.00,,,0.00,Wunderground v.1.15,2013-01-23 12:55:00,
2013-01-23 04:05:00,16.4,7.7,29.56,ESE,122,8.0,16.0,68,0.00,,,0.00,Wunderground v.1.15,2013-01-23 13:05:00,
2013-01-23 04:15:00,16.1,7.7,29.55,SE,132,11.0,11.0,69,0.00,,,0.00,Wunderground v.1.15,2013-01-23 13:15:00,
2013-01-23 04:25:00,16.4,8.0,29.55,ESE,114,11.0,18.0,69,0.00,,,0.00,Wunderground v.1.15,2013-01-23 13:25:00,
2013-01-23 04:35:00,16.2,7.8,29.55,ESE,108,9.0,10.0,69,0.00,,,0.00,Wunderground v.1.15,2013-01-23 13:35:00,
2013-01-23 04:45:00,16.2,7.5,29.55,East,101,7.0,7.0,68,0.00,,,0.00,Wunderground v.1.15,2013-01-23 13:45:00,
2013-01-23 04:55:00,15.9,6.9,29.55,ESE,112,9.0,9.0,67,0.00,,,0.00,Wunderground v.1.15,2013-01-23 13:55:00,
2013-01-23 05:05:00,15.9,7.2,29.56,ESE,112,9.0,11.0,68,0.00,,,0.00,Wunderground v.1.15,2013-01-23 14:05:00,
2013-01-23 05:15:00,15.9,7.2,29.56,ESE,108,8.0,8.0,68,0.00,,,0.00,Wunderground v.1.15,2013-01-23 14:15:00,
2013-01-23 05:20:00,16.1,7.4,29.56,SE,131,8.0,8.0,68,0.00,,,0.00,Wunderground v.1.15,2013-01-23 14:20:00,
2013-01-23 05:30:00,16.2,7.2,29.56,SE,128,5.0,5.0,67,0.00,,,0.00,Wunderground v.1.15,2013-01-23 14:30:00,
2013-01-23 05:35:00,16.2,7.2,29.56,ESE,111,4.0,5.0,67,0.00,,,0.00,Wunderground v.1.15,2013-01-23 14:35:00,
2013-01-23 05:40:00,16.1,7.1,29.56,ESE,112,4.0,4.0,67,0.00,,,0.00,Wunderground v.1.15,2013-01-23 14:40:00,
2013-01-23 05:50:00,16.1,6.7,29.57,ESE,102,2.0,2.0,66,0.00,,,0.00,Wunderground v.1.15,2013-01-23 14:50:00,
2013-01-23 05:55:00,15.9,6.9,29.57,ESE,107,1.0,3.0,67,0.00,,,0.00,Wunderground v.1.15,2013-01-23 14:55:00,
2013-01-23 06:00:00,15.6,7.2,29.57,ESE,107,1.0,1.0,69,0.00,,,0.00,Wunderground v.1.15,2013-01-23 15:00:00,
2013-01-23 06:10:00,15.6,7.2,29.57,ESE,102,2.0,8.0,69,0.00,,,0.00,Wunderground v.1.15,2013-01-23 15:10:00,
2013-01-23 06:20:00,16.1,7.7,29.56,ESE,111,5.0,5.0,69,0.00,,,0.00,Wunderground v.1.15,2013-01-23 15:20:00,
2013-01-23 06:30:00,16.2,7.5,29.56,SE,128,7.0,11.0,68,0.00,,,0.00,Wunderground v.1.15,2013-01-23 15:30:00,
2013-01-23 06:40:00,16.2,7.5,29.56,SE,128,8.0,10.0,68,0.00,,,0.00,Wunderground v.1.15,2013-01-23 15:40:00,
2013-01-23 06:45:00,16.1,7.4,29.56,East,100,7.0,10.0,68,0.00,,,0.00,Wunderground v.1.15,2013-01-23 15:45:00,
2013-01-23 06:55:00,15.9,7.2,29.56,ESE,116,4.0,5.0,68,0.00,,,0.00,Wunderground v.1.15,2013-01-23 15:55:00,
2013-01-23 07:00:00,15.9,7.5,29.56,ESE,118,3.0,3.0,69,0.00,,,0.00,Wunderground v.1.15,2013-01-23 16:00:00,
2013-01-23 07:10:00,15.7,7.0,29.56,East,100,3.0,6.0,68,0.00,,,0.00,Wunderground v.1.15,2013-01-23 16:10:00,
2013-01-23 07:15:00,15.7,7.0,29.56,ESE,118,5.0,6.0,68,0.00,,,0.00,Wunderground v.1.15,2013-01-23 16:15:00,
2013-01-23 07:20:00,15.7,7.0,29.56,ESE,116,4.0,4.0,68,0.00,,,0.00,Wunderground v.1.15,2013-01-23 16:20:00,
2013-01-23 07:30:00,15.9,6.9,29.56,ESE,112,8.0,11.0,67,0.00,,,0.00,Wunderground v.1.15,2013-01-23 16:30:00,
2013-01-23 07:40:00,15.9,7.2,29.56,East,91,11.0,11.0,68,0.00,,,0.00,Wunderground v.1.15,2013-01-23 16:40:00,
2013-01-23 07:50:00,15.7,7.0,29.55,East,91,11.0,11.0,68,0.00,,,0.00,Wunderground v.1.15,2013-01-23 16:50:00,
2013-01-23 08:00:00,15.4,7.0,29.56,East,88,8.0,10.0,69,0.00,,,0.00,Wunderground v.1.15,2013-01-23 17:00:00,
2013-01-23 08:10:00,15.6,7.2,29.56,ESE,111,8.0,8.0,69,0.00,,,0.00,Wunderground v.1.15,2013-01-23 17:10:00,
2013-01-23 08:20:00,15.9,7.5,29.55,ESE,112,7.0,7.0,69,0.00,,,0.00,Wunderground v.1.15,2013-01-23 17:20:00,
2013-01-23 08:30:00,16.2,7.2,29.55,ESE,105,7.0,7.0,67,0.00,,,0.00,Wunderground v.1.15,2013-01-23 17:30:00,
2013-01-23 08:35:00,16.2,7.2,29.55,ESE,112,6.0,7.0,67,0.00,,,0.00,Wunderground v.1.15,2013-01-23 17:35:00,
2013-01-23 08:45:00,16.5,7.4,29.55,SE,126,4.0,5.0,67,0.00,,,0.00,Wunderground v.1.15,2013-01-23 17:45:00,
2013-01-23 08:55:00,16.5,7.1,29.55,East,94,6.0,8.0,66,0.00,,,0.00,Wunderground v.1.15,2013-01-23 17:55:00,
2013-01-23 09:05:00,16.5,7.8,29.56,ESE,114,6.0,7.0,68,0.00,,,0.00,Wunderground v.1.15,2013-01-23 18:05:00,
2013-01-23 09:15:00,16.2,7.5,29.56,East,100,7.0,7.0,68,0.00,,,0.00,Wunderground v.1.15,2013-01-23 18:15:00,
2013-01-23 09:25:00,16.2,7.5,29.56,ESE,115,6.0,10.0,68,0.00,,,0.00,Wunderground v.1.15,2013-01-23 18:25:00,
2013-01-23 09:35:00,16.5,7.4,29.56,SE,125,8.0,11.0,67,0.00,,,0.00,Wunderground v.1.15,2013-01-23 18:35:00,
2013-01-23 09:40:00,16.5,7.1,29.56,East,100,8.0,8.0,66,0.00,,,0.00,Wunderground v.1.15,2013-01-23 18:40:00,
2013-01-23 09:50:00,16.7,7.0,29.56,SE,124,7.0,14.0,65,0.00,,,0.00,Wunderground v.1.15,2013-01-23 18:50:00,
2013-01-23 10:00:00,16.4,7.0,29.56,ESE,105,6.0,6.0,66,0.00,,,0.00,Wunderground v.1.15,2013-01-23 19:00:00,
2013-01-23 10:10:00,16.4,7.3,29.56,ENE,70,5.0,5.0,67,0.00,,,0.00,Wunderground v.1.15,2013-01-23 19:10:00,
2013-01-23 10:20:00,16.7,7.6,29.56,NNE,28,4.0,4.0,67,0.00,,,0.00,Wunderground v.1.15,2013-01-23 19:20:00,
2013-01-23 10:30:00,17.8,7.7,29.56,NE,50,6.0,6.0,64,0.00,,,0.00,Wunderground v.1.15,2013-01-23 19:30:00,
2013-01-23 10:40:00,17.3,7.5,29.56,East,101,4.0,4.0,65,0.00,,,0.00,Wunderground v.1.15,2013-01-23 19:40:00,
2013-01-23 10:50:00,17.3,7.5,29.55,ENE,64,6.0,11.0,65,0.00,,,0.00,Wunderground v.1.15,2013-01-23 19:50:00,
2013-01-23 11:00:00,17.5,7.0,29.56,ENE,73,8.0,8.0,63,0.00,,,0.00,Wunderground v.1.15,2013-01-23 20:00:00,
2013-01-23 11:10:00,17.0,6.9,29.56,ENE,77,6.0,6.0,64,0.00,,,0.00,Wunderground v.1.15,2013-01-23 20:10:00,
2013-01-23 11:20:00,17.7,7.2,29.56,East,85,4.0,4.0,63,0.00,,,0.00,Wunderground v.1.15,2013-01-23 20:20:00,
2013-01-23 11:25:00,17.5,7.4,29.56,East,88,3.0,4.0,64,0.00,,,0.00,Wunderground v.1.15,2013-01-23 20:25:00,
2013-01-23 11:35:00,17.3,7.2,29.57,SSW,197,2.0,2.0,64,0.00,,,0.00,Wunderground v.1.15,2013-01-23 20:35:00,
2013-01-23 11:45:00,17.5,6.7,29.56,ESE,115,3.0,7.0,62,0.00,,,0.00,Wunderground v.1.15,2013-01-23 20:45:00,
2013-01-23 11:50:00,17.2,6.8,29.56,East,92,4.0,4.0,63,0.00,,,0.00,Wunderground v.1.15,2013-01-23 20:50:00,
2013-01-23 12:00:00,16.9,6.5,29.56,ESE,114,3.0,10.0,63,0.00,,,0.00,Wunderground v.1.15,2013-01-23 21:00:00,
2013-01-23 12:10:00,16.4,5.6,29.56,East,101,4.0,4.0,62,0.00,,,0.00,Wunderground v.1.15,2013-01-23 21:10:00,
2013-01-23 12:15:00,16.4,5.6,29.56,ESE,107,3.0,4.0,62,0.00,,,0.00,Wunderground v.1.15,2013-01-23 21:15:00,
2013-01-23 12:25:00,16.5,5.7,29.56,ESE,112,5.0,10.0,62,0.00,,,0.00,Wunderground v.1.15,2013-01-23 21:25:00,
2013-01-23 12:35:00,17.3,6.8,29.56,East,101,5.0,6.0,63,0.00,,,0.00,Wunderground v.1.15,2013-01-23 21:35:00,
2013-01-23 12:45:00,18.0,7.5,29.56,East,88,4.0,6.0,63,0.00,,,0.00,Wunderground v.1.15,2013-01-23 21:45:00,
2013-01-23 12:55:00,17.3,6.5,29.56,ESE,109,4.0,10.0,62,0.00,,,0.00,Wunderground v.1.15,2013-01-23 21:55:00,
2013-01-23 13:05:00,16.4,6.3,29.56,SE,133,8.0,10.0,64,0.00,,,0.00,Wunderground v.1.15,2013-01-23 22:05:00,
2013-01-23 13:15:00,16.4,6.7,29.56,SE,135,8.0,9.0,65,0.00,,,0.00,Wunderground v.1.15,2013-01-23 22:15:00,
2013-01-23 13:25:00,16.7,6.6,29.56,ESE,116,8.0,8.0,64,0.00,,,0.00,Wunderground v.1.15,2013-01-23 22:25:00,
2013-01-23 13:35:00,16.1,6.1,29.56,SE,126,11.0,13.0,64,0.00,,,0.00,Wunderground v.1.15,2013-01-23 22:35:00,
2013-01-23 13:45:00,15.4,5.7,29.57,ESE,114,9.0,12.0,65,0.00,,,0.00,Wunderground v.1.15,2013-01-23 22:45:00,
2013-01-23 13:55:00,14.9,5.2,29.57,ESE,119,7.0,7.0,65,0.00,,,0.00,Wunderground v.1.15,2013-01-23 22:55:00,
2013-01-23 14:05:00,14.8,5.2,29.56,ESE,112,9.0,11.0,65,0.00,,,0.00,Wunderground v.1.15,2013-01-23 23:05:00,
2013-01-23 14:15:00,15.1,5.1,29.56,ESE,119,9.0,10.0,64,0.00,,,0.00,Wunderground v.1.15,2013-01-23 23:15:00,
2013-01-23 14:20:00,14.9,5.2,29.56,ESE,111,9.0,9.0,65,0.00,,,0.00,Wunderground v.1.15,2013-01-23 23:20:00,
2013-01-23 14:30:00,14.4,4.4,29.57,NE,39,7.0,7.0,64,0.00,,,0.00,Wunderground v.1.15,2013-01-23 23:30:00,
2013-01-23 14:40:00,14.3,4.7,29.57,North,6,2.0,4.0,65,0.00,,,0.00,Wunderground v.1.15,2013-01-23 23:40:00,
2013-01-23 14:50:00,14.0,4.4,29.57,East,81,4.0,4.0,65,0.00,,,0.00,Wunderground v.1.15,2013-01-23 23:50:00,
2013-01-23 15:00:00,14.0,4.4,29.57,NNE,28,3.0,3.0,65,0.00,,,0.00,Wunderground v.1.15,2013-01-24 00:00:00,
2013-01-23 15:10:00,14.1,3.8,29.57,ENE,77,5.0,6.0,63,0.00,,,0.00,Wunderground v.1.15,2013-01-24 00:10:00,
2013-01-23 15:20:00,13.8,3.5,29.56,SE,126,8.0,8.0,63,0.00,,,0.00,Wunderground v.1.15,2013-01-24 00:20:00,
2013-01-23 15:25:00,13.8,3.2,29.56,SE,133,8.0,8.0,62,0.00,,,0.00,Wunderground v.1.15,2013-01-24 00:25:00,
2013-01-23 15:35:00,13.8,3.5,29.56,ESE,108,4.0,7.0,63,0.00,,,0.00,Wunderground v.1.15,2013-01-24 00:35:00,
2013-01-23 15:45:00,14.8,1.9,29.57,ENE,64,10.0,21.0,56,0.00,,,0.00,Wunderground v.1.15,2013-01-24 00:45:00,
2013-01-23 15:55:00,14.4,1.9,29.57,ENE,60,12.0,15.0,57,0.00,,,0.00,Wunderground v.1.15,2013-01-24 00:55:00,
2013-01-23 16:05:00,14.4,3.4,29.57,East,100,6.0,10.0,61,0.00,,,0.00,Wunderground v.1.15,2013-01-24 01:05:00,
2013-01-23 16:15:00,14.6,2.1,29.56,East,97,8.0,13.0,57,0.00,,,0.00,Wunderground v.1.15,2013-01-24 01:15:00,
2013-01-23 16:20:00,14.4,2.3,29.56,ESE,107,11.0,11.0,58,0.00,,,0.00,Wunderground v.1.15,2013-01-24 01:20:00,
2013-01-23 16:30:00,14.9,2.4,29.56,ESE,112,8.0,8.0,57,0.00,,,0.00,Wunderground v.1.15,2013-01-24 01:30:00,
2013-01-23 16:40:00,15.2,1.9,29.56,ESE,118,6.0,7.0,55,0.00,,,0.00,Wunderground v.1.15,2013-01-24 01:40:00,
2013-01-23 16:50:00,14.6,2.5,29.56,East,98,6.0,6.0,58,0.00,,,0.00,Wunderground v.1.15,2013-01-24 01:50:00,
2013-01-23 17:00:00,14.3,2.2,29.57,East,90,4.0,4.0,58,0.00,,,0.00,Wunderground v.1.15,2013-01-24 02:00:00,
2013-01-23 17:10:00,14.0,1.5,29.57,East,90,5.0,5.0,57,0.00,,,0.00,Wunderground v.1.15,2013-01-24 02:10:00,
2013-01-23 17:15:00,14.0,1.5,29.57,ENE,73,5.0,5.0,57,0.00,,,0.00,Wunderground v.1.15,2013-01-24 02:15:00,
2013-01-23 17:25:00,14.1,1.6,29.57,ENE,64,4.0,5.0,57,0.00,,,0.00,Wunderground v.1.15,2013-01-24 02:25:00,
2013-01-23 17:35:00,13.8,1.4,29.57,ESE,109,0.0,3.0,57,0.00,,,0.00,Wunderground v.1.15,2013-01-24 02:35:00,
2013-01-23 17:40:00,14.4,0.8,29.57,East,98,2.0,12.0,54,0.00,,,0.00,Wunderground v.1.15,2013-01-24 02:40:00,
2013-01-23 17:50:00,14.0,1.5,29.57,East,101,6.0,6.0,57,0.00,,,0.00,Wunderground v.1.15,2013-01-24 02:50:00,
2013-01-23 18:00:00,13.1,2.5,29.58,ESE,102,3.0,7.0,62,0.00,,,0.00,Wunderground v.1.15,2013-01-24 03:00:00,
2013-01-23 18:10:00,12.6,2.4,29.58,SE,132,9.0,11.0,63,0.00,,,0.00,Wunderground v.1.15,2013-01-24 03:10:00,
2013-01-23 18:20:00,12.4,1.8,29.58,SE,136,9.0,11.0,62,0.00,,,0.00,Wunderground v.1.15,2013-01-24 03:20:00,
2013-01-23 18:30:00,13.1,2.5,29.59,SE,142,10.0,10.0,62,0.00,,,0.00,Wunderground v.1.15,2013-01-24 03:30:00,
2013-01-23 18:40:00,13.3,2.3,29.59,SE,128,6.0,6.0,61,0.00,,,0.00,Wunderground v.1.15,2013-01-24 03:40:00,
2013-01-23 18:45:00,13.3,2.3,29.59,East,97,6.0,6.0,61,0.00,,,0.00,Wunderground v.1.15,2013-01-24 03:45:00,
2013-01-23 18:55:00,13.6,1.9,29.59,SE,135,3.0,5.0,59,0.00,,,0.00,Wunderground v.1.15,2013-01-24 03:55:00,
2013-01-23 19:05:00,13.8,1.4,29.60,ENE,61,5.0,5.0,57,0.00,,,0.00,Wunderground v.1.15,2013-01-24 04:05:00,
2013-01-23 19:15:00,13.8,1.0,29.60,ENE,66,5.0,7.0,56,0.00,,,0.00,Wunderground v.1.15,2013-01-24 04:15:00,
2013-01-23 19:25:00,13.5,1.1,29.60,ESE,114,7.0,7.0,57,0.00,,,0.00,Wunderground v.1.15,2013-01-24 04:25:00,
2013-01-23 19:30:00,13.3,0.9,29.60,SE,133,8.0,16.0,57,0.00,,,0.00,Wunderground v.1.15,2013-01-24 04:30:00,
2013-01-23 19:40:00,12.9,0.5,29.60,SE,140,14.0,14.0,57,0.00,,,0.00,Wunderground v.1.15,2013-01-24 04:40:00,
2013-01-23 19:50:00,12.9,0.5,29.59,SE,136,16.0,16.0,57,0.00,,,0.00,Wunderground v.1.15,2013-01-24 04:50:00,
2013-01-23 20:05:00,12.8,-0.3,29.61,SE,140,8.0,12.0,55,0.00,,,0.00,Wunderground v.1.15,2013-01-24 05:05:00,
2013-01-23 20:10:00,12.8,-0.3,29.61,SE,128,9.0,11.0,55,0.00,,,0.00,Wunderground v.1.15,2013-01-24 05:10:00,
2013-01-23 20:15:00,12.8,-0.3,29.61,SE,129,11.0,11.0,55,0.00,,,0.00,Wunderground v.1.15,2013-01-24 05:15:00,
2013-01-23 20:25:00,12.9,-0.6,29.61,SE,139,11.0,12.0,54,0.00,,,0.00,Wunderground v.1.15,2013-01-24 05:25:00,
2013-01-23 20:35:00,12.8,-0.3,29.61,ESE,122,6.0,9.0,55,0.00,,,0.00,Wunderground v.1.15,2013-01-24 05:35:00,
2013-01-23 20:40:00,12.8,0.4,29.61,SE,138,3.0,7.0,57,0.00,,,0.00,Wunderground v.1.15,2013-01-24 05:40:00,
2013-01-23 20:45:00,12.3,0.3,29.62,ESE,119,4.0,7.0,58,0.00,,,0.00,Wunderground v.1.15,2013-01-24 05:45:00,
2013-01-23 20:55:00,11.6,-0.3,29.62,ESE,116,3.0,7.0,58,0.00,,,0.00,Wunderground v.1.15,2013-01-24 05:55:00,
2013-01-23 21:00:00,11.6,-0.3,29.62,ESE,111,5.0,8.0,58,0.00,,,0.00,Wunderground v.1.15,2013-01-24 06:00:00,
2013-01-23 21:10:00,11.4,-0.5,29.62,ESE,109,7.0,11.0,58,0.00,,,0.00,Wunderground v.1.15,2013-01-24 06:10:00,
2013-01-23 21:15:00,11.2,-0.7,29.62,ESE,111,7.0,11.0,58,0.00,,,0.00,Wunderground v.1.15,2013-01-24 06:15:00,
2013-01-23 21:25:00,11.1,-1.2,29.62,SE,143,7.0,7.0,57,0.00,,,0.00,Wunderground v.1.15,2013-01-24 06:25:00,
2013-01-23 21:30:00,11.1,-1.2,29.62,East,101,8.0,11.0,57,0.00,,,0.00,Wunderground v.1.15,2013-01-24 06:30:00,
2013-01-23 21:40:00,11.1,-0.5,29.62,ESE,122,11.0,11.0,59,0.00,,,0.00,Wunderground v.1.15,2013-01-24 06:40:00,
2013-01-23 21:50:00,11.6,-0.3,29.63,SE,133,15.0,15.0,58,0.00,,,0.00,Wunderground v.1.15,2013-01-24 06:50:00,
2013-01-23 22:05:00,11.9,0.3,29.63,SE,135,17.0,17.0,59,0.00,,,0.00,Wunderground v.1.15,2013-01-24 07:05:00,
2013-01-23 22:15:00,11.9,-0.8,29.64,SE,129,19.0,20.0,56,0.00,,,0.00,Wunderground v.1.15,2013-01-24 07:15:00,
2013-01-23 22:25:00,11.7,-1.4,29.64,SE,129,18.0,19.0,55,0.00,,,0.00,Wunderground v.1.15,2013-01-24 07:25:00,
2013-01-23 22:34:00,11.6,-0.3,29.65,SSE,149,17.0,21.0,58,0.00,,,0.00,Wunderground v.1.15,2013-01-24 07:34:00,
2013-01-23 22:40:00,11.6,-0.3,29.65,SE,138,17.0,17.0,58,0.00,,,0.00,Wunderground v.1.15,2013-01-24 07:40:00,
2013-01-23 22:49:00,11.4,-0.9,29.66,SE,135,16.0,22.0,57,0.00,,,0.00,Wunderground v.1.15,2013-01-24 07:49:00,
2013-01-23 22:54:00,11.2,-1.1,29.66,ESE,116,17.0,22.0,57,0.00,,,0.00,Wunderground v.1.15,2013-01-24 07:54:00,
2013-01-23 23:00:00,11.2,-1.1,29.67,SSE,150,18.0,22.0,57,0.00,,,0.00,Wunderground v.1.15,2013-01-24 08:00:00,
2013-01-23 23:10:00,10.9,-1.4,29.67,SE,143,17.0,17.0,57,0.00,,,0.00,Wunderground v.1.15,2013-01-24 08:10:00,
2013-01-23 23:20:00,10.9,-1.7,29.68,SE,136,16.0,18.0,56,0.00,,,0.00,Wunderground v.1.15,2013-01-24 08:20:00,
2013-01-23 23:29:00,10.7,-1.6,29.67,SE,135,19.0,21.0,57,0.00,,,0.00,Wunderground v.1.15,2013-01-24 08:29:00,
2013-01-23 23:39:00,10.7,-1.9,29.67,SSE,155,20.0,20.0,56,0.00,,,0.00,Wunderground v.1.15,2013-01-24 08:39:00,
2013-01-23 23:44:00,10.7,-1.6,29.67,SE,132,21.0,21.0,57,0.00,,,0.00,Wunderground v.1.15,2013-01-24 08:44:00,
2013-01-23 23:54:00,10.7,-1.2,29.67,SE,140,20.0,22.0,58,0.00,,,0.00,Wunderground v.1.15,2013-01-24 08:54:00,